sensor_id;sensor_type;location;lat;lon;timestamp;P1;durP1;ratioP1;P2;durP2;ratioP2
13349;SDS011;6744;53.190;6.576;2024-02-21T00:01:26;6.37;;;2.13;;
13349;SDS011;6744;53.190;6.576;2024-02-21T00:03:52;6.53;;;2.30;;
13349;SDS011;6744;53.190;6.576;2024-02-21T00:06:17;7.50;;;2.50;;
13349;SDS011;6744;53.190;6.576;2024-02-21T00:08:43;11.10;;;3.00;;
13349;SDS011;6744;53.190;6.576;2024-02-21T00:11:08;11.97;;;2.73;;
13349;SDS011;6744;53.190;6.576;2024-02-21T00:13:34;9.73;;;3.17;;
13349;SDS011;6744;53.190;6.576;2024-02-21T00:16:00;7.37;;;3.17;;
13349;SDS011;6744;53.190;6.576;2024-02-21T00:18:26;10.07;;;2.73;;
13349;SDS011;6744;53.190;6.576;2024-02-21T00:20:51;9.87;;;3.17;;
13349;SDS011;6744;53.190;6.576;2024-02-21T00:23:17;7.83;;;2.83;;
13349;SDS011;6744;53.190;6.576;2024-02-21T00:25:43;10.77;;;3.20;;
13349;SDS011;6744;53.190;6.576;2024-02-21T00:28:08;12.40;;;3.40;;
13349;SDS011;6744;53.190;6.576;2024-02-21T00:30:34;9.27;;;3.13;;
13349;SDS011;6744;53.190;6.576;2024-02-21T00:32:59;10.17;;;2.73;;
13349;SDS011;6744;53.190;6.576;2024-02-21T00:35:24;10.97;;;3.40;;
13349;SDS011;6744;53.190;6.576;2024-02-21T00:37:50;10.83;;;3.17;;
13349;SDS011;6744;53.190;6.576;2024-02-21T00:40:16;12.90;;;3.23;;
13349;SDS011;6744;53.190;6.576;2024-02-21T00:42:45;12.40;;;3.40;;
13349;SDS011;6744;53.190;6.576;2024-02-21T00:45:11;10.00;;;3.60;;
13349;SDS011;6744;53.190;6.576;2024-02-21T00:47:36;10.27;;;3.40;;
13349;SDS011;6744;53.190;6.576;2024-02-21T00:50:02;8.33;;;3.20;;
13349;SDS011;6744;53.190;6.576;2024-02-21T00:52:27;7.00;;;2.93;;
13349;SDS011;6744;53.190;6.576;2024-02-21T00:54:53;8.40;;;3.30;;
13349;SDS011;6744;53.190;6.576;2024-02-21T00:57:18;13.00;;;3.60;;
13349;SDS011;6744;53.190;6.576;2024-02-21T00:59:43;9.80;;;3.27;;
13349;SDS011;6744;53.190;6.576;2024-02-21T01:02:09;9.90;;;3.23;;
13349;SDS011;6744;53.190;6.576;2024-02-21T01:04:34;11.53;;;3.70;;
13349;SDS011;6744;53.190;6.576;2024-02-21T01:07:00;12.13;;;3.50;;
13349;SDS011;6744;53.190;6.576;2024-02-21T01:09:25;9.73;;;3.50;;
13349;SDS011;6744;53.190;6.576;2024-02-21T01:11:51;9.93;;;3.70;;
13349;SDS011;6744;53.190;6.576;2024-02-21T01:14:16;10.83;;;3.90;;
13349;SDS011;6744;53.190;6.576;2024-02-21T01:16:41;8.10;;;3.63;;
13349;SDS011;6744;53.190;6.576;2024-02-21T01:19:07;11.20;;;4.10;;
13349;SDS011;6744;53.190;6.576;2024-02-21T01:21:33;11.20;;;3.87;;
13349;SDS011;6744;53.190;6.576;2024-02-21T01:23:58;10.17;;;4.03;;
13349;SDS011;6744;53.190;6.576;2024-02-21T01:26:24;11.17;;;4.10;;
13349;SDS011;6744;53.190;6.576;2024-02-21T01:28:49;7.33;;;3.70;;
13349;SDS011;6744;53.190;6.576;2024-02-21T01:31:14;12.33;;;3.97;;
13349;SDS011;6744;53.190;6.576;2024-02-21T01:33:40;16.37;;;5.47;;
13349;SDS011;6744;53.190;6.576;2024-02-21T01:36:06;10.93;;;4.20;;
13349;SDS011;6744;53.190;6.576;2024-02-21T01:38:32;11.10;;;4.97;;
13349;SDS011;6744;53.190;6.576;2024-02-21T01:40:57;10.20;;;4.20;;
13349;SDS011;6744;53.190;6.576;2024-02-21T01:43:23;9.27;;;4.40;;
13349;SDS011;6744;53.190;6.576;2024-02-21T01:45:49;12.90;;;4.40;;
13349;SDS011;6744;53.190;6.576;2024-02-21T01:48:18;11.33;;;4.50;;
13349;SDS011;6744;53.190;6.576;2024-02-21T01:50:47;13.27;;;4.80;;
13349;SDS011;6744;53.190;6.576;2024-02-21T01:53:14;7.90;;;3.90;;
13349;SDS011;6744;53.190;6.576;2024-02-21T01:55:47;8.93;;;4.33;;
13349;SDS011;6744;53.190;6.576;2024-02-21T01:58:16;8.40;;;4.07;;
13349;SDS011;6744;53.190;6.576;2024-02-21T02:00:42;11.50;;;3.80;;
13349;SDS011;6744;53.190;6.576;2024-02-21T02:03:11;7.10;;;3.47;;
13349;SDS011;6744;53.190;6.576;2024-02-21T02:05:45;8.30;;;4.40;;
13349;SDS011;6744;53.190;6.576;2024-02-21T02:08:12;8.07;;;3.87;;
13349;SDS011;6744;53.190;6.576;2024-02-21T02:10:41;8.43;;;3.50;;
13349;SDS011;6744;53.190;6.576;2024-02-21T02:13:06;6.40;;;3.33;;
13349;SDS011;6744;53.190;6.576;2024-02-21T02:15:40;6.07;;;3.13;;
13349;SDS011;6744;53.190;6.576;2024-02-21T02:18:10;7.13;;;3.30;;
13349;SDS011;6744;53.190;6.576;2024-02-21T02:20:36;7.00;;;3.23;;
13349;SDS011;6744;53.190;6.576;2024-02-21T02:23:11;7.53;;;3.93;;
13349;SDS011;6744;53.190;6.576;2024-02-21T02:25:37;6.83;;;3.83;;
13349;SDS011;6744;53.190;6.576;2024-02-21T02:28:03;5.60;;;3.33;;
13349;SDS011;6744;53.190;6.576;2024-02-21T02:30:35;7.77;;;3.63;;
13349;SDS011;6744;53.190;6.576;2024-02-21T02:33:04;7.57;;;3.37;;
13349;SDS011;6744;53.190;6.576;2024-02-21T02:35:30;8.10;;;3.60;;
13349;SDS011;6744;53.190;6.576;2024-02-21T02:37:56;8.97;;;3.70;;
13349;SDS011;6744;53.190;6.576;2024-02-21T02:40:21;7.90;;;3.40;;
13349;SDS011;6744;53.190;6.576;2024-02-21T02:42:47;7.30;;;3.17;;
13349;SDS011;6744;53.190;6.576;2024-02-21T02:45:14;7.03;;;3.77;;
13349;SDS011;6744;53.190;6.576;2024-02-21T02:47:46;8.07;;;3.17;;
13349;SDS011;6744;53.190;6.576;2024-02-21T02:50:11;10.87;;;3.80;;
13349;SDS011;6744;53.190;6.576;2024-02-21T02:52:37;9.57;;;3.40;;
13349;SDS011;6744;53.190;6.576;2024-02-21T02:55:03;12.47;;;4.57;;
13349;SDS011;6744;53.190;6.576;2024-02-21T02:57:29;7.90;;;3.70;;
13349;SDS011;6744;53.190;6.576;2024-02-21T02:59:55;10.03;;;3.60;;
13349;SDS011;6744;53.190;6.576;2024-02-21T03:02:20;9.43;;;3.50;;
13349;SDS011;6744;53.190;6.576;2024-02-21T03:04:46;9.30;;;3.90;;
13349;SDS011;6744;53.190;6.576;2024-02-21T03:07:11;13.67;;;4.40;;
13349;SDS011;6744;53.190;6.576;2024-02-21T03:09:39;12.60;;;3.90;;
13349;SDS011;6744;53.190;6.576;2024-02-21T03:12:08;8.47;;;3.80;;
13349;SDS011;6744;53.190;6.576;2024-02-21T03:14:34;10.00;;;3.60;;
13349;SDS011;6744;53.190;6.576;2024-02-21T03:17:00;11.13;;;4.23;;
13349;SDS011;6744;53.190;6.576;2024-02-21T03:19:26;13.30;;;4.90;;
13349;SDS011;6744;53.190;6.576;2024-02-21T03:21:51;12.10;;;4.60;;
13349;SDS011;6744;53.190;6.576;2024-02-21T03:24:18;11.03;;;4.13;;
13349;SDS011;6744;53.190;6.576;2024-02-21T03:26:44;12.13;;;4.20;;
13349;SDS011;6744;53.190;6.576;2024-02-21T03:29:10;12.43;;;4.27;;
13349;SDS011;6744;53.190;6.576;2024-02-21T03:31:36;15.47;;;5.30;;
13349;SDS011;6744;53.190;6.576;2024-02-21T03:34:02;10.37;;;3.80;;
13349;SDS011;6744;53.190;6.576;2024-02-21T03:36:28;9.47;;;3.97;;
13349;SDS011;6744;53.190;6.576;2024-02-21T03:38:56;15.67;;;4.53;;
13349;SDS011;6744;53.190;6.576;2024-02-21T03:41:22;14.83;;;5.07;;
13349;SDS011;6744;53.190;6.576;2024-02-21T03:43:47;12.57;;;4.03;;
13349;SDS011;6744;53.190;6.576;2024-02-21T03:46:13;9.90;;;4.20;;
13349;SDS011;6744;53.190;6.576;2024-02-21T03:48:39;17.50;;;5.10;;
13349;SDS011;6744;53.190;6.576;2024-02-21T03:51:04;12.70;;;4.20;;
13349;SDS011;6744;53.190;6.576;2024-02-21T03:53:30;11.40;;;4.13;;
13349;SDS011;6744;53.190;6.576;2024-02-21T03:55:55;14.97;;;4.60;;
13349;SDS011;6744;53.190;6.576;2024-02-21T03:58:21;12.73;;;3.90;;
13349;SDS011;6744;53.190;6.576;2024-02-21T04:00:47;13.97;;;4.90;;
13349;SDS011;6744;53.190;6.576;2024-02-21T04:03:13;17.20;;;4.60;;
13349;SDS011;6744;53.190;6.576;2024-02-21T04:05:38;10.13;;;4.17;;
13349;SDS011;6744;53.190;6.576;2024-02-21T04:08:04;15.80;;;5.53;;
13349;SDS011;6744;53.190;6.576;2024-02-21T04:10:30;10.73;;;4.63;;
13349;SDS011;6744;53.190;6.576;2024-02-21T04:12:56;14.20;;;5.10;;
13349;SDS011;6744;53.190;6.576;2024-02-21T04:15:21;16.40;;;4.53;;
13349;SDS011;6744;53.190;6.576;2024-02-21T04:17:47;11.77;;;4.17;;
13349;SDS011;6744;53.190;6.576;2024-02-21T04:20:16;12.20;;;4.70;;
13349;SDS011;6744;53.190;6.576;2024-02-21T04:22:44;12.60;;;4.17;;
13349;SDS011;6744;53.190;6.576;2024-02-21T04:25:10;11.07;;;4.17;;
13349;SDS011;6744;53.190;6.576;2024-02-21T04:27:37;11.13;;;4.10;;
13349;SDS011;6744;53.190;6.576;2024-02-21T04:30:03;12.63;;;5.03;;
13349;SDS011;6744;53.190;6.576;2024-02-21T04:32:29;16.07;;;5.00;;
13349;SDS011;6744;53.190;6.576;2024-02-21T04:34:54;13.10;;;5.07;;
13349;SDS011;6744;53.190;6.576;2024-02-21T04:37:20;13.50;;;4.77;;
13349;SDS011;6744;53.190;6.576;2024-02-21T04:39:45;9.73;;;4.33;;
13349;SDS011;6744;53.190;6.576;2024-02-21T04:42:11;12.03;;;5.20;;
13349;SDS011;6744;53.190;6.576;2024-02-21T04:44:37;10.67;;;4.70;;
13349;SDS011;6744;53.190;6.576;2024-02-21T04:47:03;11.67;;;4.57;;
13349;SDS011;6744;53.190;6.576;2024-02-21T04:49:29;10.57;;;4.80;;
13349;SDS011;6744;53.190;6.576;2024-02-21T04:51:54;10.83;;;4.67;;
13349;SDS011;6744;53.190;6.576;2024-02-21T04:54:20;14.87;;;5.33;;
13349;SDS011;6744;53.190;6.576;2024-02-21T04:56:45;12.07;;;4.50;;
13349;SDS011;6744;53.190;6.576;2024-02-21T04:59:11;14.20;;;5.33;;
13349;SDS011;6744;53.190;6.576;2024-02-21T05:01:36;14.47;;;5.63;;
13349;SDS011;6744;53.190;6.576;2024-02-21T05:04:02;14.57;;;5.27;;
13349;SDS011;6744;53.190;6.576;2024-02-21T05:06:27;15.17;;;5.57;;
13349;SDS011;6744;53.190;6.576;2024-02-21T05:08:53;10.27;;;4.10;;
13349;SDS011;6744;53.190;6.576;2024-02-21T05:11:20;12.83;;;4.43;;
13349;SDS011;6744;53.190;6.576;2024-02-21T05:13:46;8.60;;;4.40;;
13349;SDS011;6744;53.190;6.576;2024-02-21T05:16:11;11.10;;;4.60;;
13349;SDS011;6744;53.190;6.576;2024-02-21T05:18:37;13.03;;;5.07;;
13349;SDS011;6744;53.190;6.576;2024-02-21T05:21:02;11.30;;;3.97;;
13349;SDS011;6744;53.190;6.576;2024-02-21T05:23:28;12.67;;;4.20;;
13349;SDS011;6744;53.190;6.576;2024-02-21T05:25:53;13.20;;;4.27;;
13349;SDS011;6744;53.190;6.576;2024-02-21T05:28:19;12.13;;;4.17;;
13349;SDS011;6744;53.190;6.576;2024-02-21T05:30:45;10.70;;;4.00;;
13349;SDS011;6744;53.190;6.576;2024-02-21T05:33:10;10.93;;;4.43;;
13349;SDS011;6744;53.190;6.576;2024-02-21T05:35:36;10.33;;;4.07;;
13349;SDS011;6744;53.190;6.576;2024-02-21T05:38:01;15.33;;;4.47;;
13349;SDS011;6744;53.190;6.576;2024-02-21T05:40:31;11.60;;;4.37;;
13349;SDS011;6744;53.190;6.576;2024-02-21T05:42:57;12.37;;;4.70;;
13349;SDS011;6744;53.190;6.576;2024-02-21T05:45:22;13.33;;;4.83;;
13349;SDS011;6744;53.190;6.576;2024-02-21T05:47:48;13.50;;;4.53;;
13349;SDS011;6744;53.190;6.576;2024-02-21T05:50:14;15.87;;;5.17;;
13349;SDS011;6744;53.190;6.576;2024-02-21T05:52:39;15.07;;;5.07;;
13349;SDS011;6744;53.190;6.576;2024-02-21T05:55:06;13.13;;;4.63;;
13349;SDS011;6744;53.190;6.576;2024-02-21T05:57:32;11.83;;;4.87;;
13349;SDS011;6744;53.190;6.576;2024-02-21T05:59:57;13.60;;;4.97;;
13349;SDS011;6744;53.190;6.576;2024-02-21T06:02:23;12.33;;;4.83;;
13349;SDS011;6744;53.190;6.576;2024-02-21T06:04:48;11.83;;;4.77;;
13349;SDS011;6744;53.190;6.576;2024-02-21T06:07:13;12.23;;;4.20;;
13349;SDS011;6744;53.190;6.576;2024-02-21T06:09:39;11.07;;;4.27;;
13349;SDS011;6744;53.190;6.576;2024-02-21T06:12:04;9.50;;;4.13;;
13349;SDS011;6744;53.190;6.576;2024-02-21T06:14:30;11.63;;;4.60;;
13349;SDS011;6744;53.190;6.576;2024-02-21T06:16:55;11.10;;;4.87;;
13349;SDS011;6744;53.190;6.576;2024-02-21T06:19:21;13.97;;;5.17;;
13349;SDS011;6744;53.190;6.576;2024-02-21T06:21:46;11.83;;;4.63;;
13349;SDS011;6744;53.190;6.576;2024-02-21T06:24:11;13.07;;;5.37;;
13349;SDS011;6744;53.190;6.576;2024-02-21T06:26:37;10.97;;;4.93;;
13349;SDS011;6744;53.190;6.576;2024-02-21T06:29:05;12.13;;;5.07;;
13349;SDS011;6744;53.190;6.576;2024-02-21T06:31:30;10.23;;;4.60;;
13349;SDS011;6744;53.190;6.576;2024-02-21T06:33:57;13.57;;;4.47;;
13349;SDS011;6744;53.190;6.576;2024-02-21T06:36:22;11.70;;;4.77;;
13349;SDS011;6744;53.190;6.576;2024-02-21T06:38:47;13.60;;;5.27;;
13349;SDS011;6744;53.190;6.576;2024-02-21T06:41:16;10.67;;;4.80;;
13349;SDS011;6744;53.190;6.576;2024-02-21T06:43:43;13.23;;;5.23;;
13349;SDS011;6744;53.190;6.576;2024-02-21T06:46:09;11.57;;;4.73;;
13349;SDS011;6744;53.190;6.576;2024-02-21T06:48:35;9.57;;;4.30;;
13349;SDS011;6744;53.190;6.576;2024-02-21T06:51:00;9.00;;;4.80;;
13349;SDS011;6744;53.190;6.576;2024-02-21T06:53:26;14.27;;;5.40;;
13349;SDS011;6744;53.190;6.576;2024-02-21T06:55:51;8.77;;;4.53;;
13349;SDS011;6744;53.190;6.576;2024-02-21T06:58:16;12.67;;;5.07;;
13349;SDS011;6744;53.190;6.576;2024-02-21T07:00:42;13.00;;;6.43;;
13349;SDS011;6744;53.190;6.576;2024-02-21T07:03:08;12.77;;;5.00;;
13349;SDS011;6744;53.190;6.576;2024-02-21T07:05:33;14.90;;;5.73;;
13349;SDS011;6744;53.190;6.576;2024-02-21T07:07:59;13.47;;;6.23;;
13349;SDS011;6744;53.190;6.576;2024-02-21T07:10:24;16.73;;;7.63;;
13349;SDS011;6744;53.190;6.576;2024-02-21T07:12:50;19.93;;;9.70;;
13349;SDS011;6744;53.190;6.576;2024-02-21T07:15:17;19.97;;;9.73;;
13349;SDS011;6744;53.190;6.576;2024-02-21T07:17:42;20.97;;;10.90;;
13349;SDS011;6744;53.190;6.576;2024-02-21T07:20:08;27.07;;;12.47;;
13349;SDS011;6744;53.190;6.576;2024-02-21T07:22:33;23.43;;;12.17;;
13349;SDS011;6744;53.190;6.576;2024-02-21T07:24:59;22.20;;;11.80;;
13349;SDS011;6744;53.190;6.576;2024-02-21T07:27:24;24.47;;;11.60;;
13349;SDS011;6744;53.190;6.576;2024-02-21T07:29:53;27.17;;;12.77;;
13349;SDS011;6744;53.190;6.576;2024-02-21T07:32:19;24.97;;;12.83;;
13349;SDS011;6744;53.190;6.576;2024-02-21T07:34:44;24.03;;;12.10;;
13349;SDS011;6744;53.190;6.576;2024-02-21T07:37:10;23.67;;;11.30;;
13349;SDS011;6744;53.190;6.576;2024-02-21T07:39:36;22.77;;;11.70;;
13349;SDS011;6744;53.190;6.576;2024-02-21T07:42:02;21.10;;;10.83;;
13349;SDS011;6744;53.190;6.576;2024-02-21T07:44:28;18.10;;;9.40;;
13349;SDS011;6744;53.190;6.576;2024-02-21T07:46:53;21.60;;;9.13;;
13349;SDS011;6744;53.190;6.576;2024-02-21T07:49:19;17.63;;;7.63;;
13349;SDS011;6744;53.190;6.576;2024-02-21T07:51:44;19.23;;;6.90;;
13349;SDS011;6744;53.190;6.576;2024-02-21T07:54:09;14.77;;;5.93;;
13349;SDS011;6744;53.190;6.576;2024-02-21T07:56:35;16.53;;;5.60;;
13349;SDS011;6744;53.190;6.576;2024-02-21T07:59:00;10.13;;;5.17;;
13349;SDS011;6744;53.190;6.576;2024-02-21T08:01:26;8.40;;;4.20;;
13349;SDS011;6744;53.190;6.576;2024-02-21T08:03:51;12.30;;;5.00;;
13349;SDS011;6744;53.190;6.576;2024-02-21T08:06:17;10.13;;;4.33;;
13349;SDS011;6744;53.190;6.576;2024-02-21T08:08:42;10.57;;;5.07;;
13349;SDS011;6744;53.190;6.576;2024-02-21T08:11:07;17.40;;;5.87;;
13349;SDS011;6744;53.190;6.576;2024-02-21T08:13:33;10.50;;;4.30;;
13349;SDS011;6744;53.190;6.576;2024-02-21T08:15:58;12.73;;;4.67;;
13349;SDS011;6744;53.190;6.576;2024-02-21T08:18:24;12.13;;;4.70;;
13349;SDS011;6744;53.190;6.576;2024-02-21T08:20:49;11.67;;;4.07;;
13349;SDS011;6744;53.190;6.576;2024-02-21T08:23:18;7.77;;;3.27;;
13349;SDS011;6744;53.190;6.576;2024-02-21T08:25:44;9.90;;;4.10;;
13349;SDS011;6744;53.190;6.576;2024-02-21T08:28:10;7.63;;;3.37;;
13349;SDS011;6744;53.190;6.576;2024-02-21T08:30:35;10.20;;;4.57;;
13349;SDS011;6744;53.190;6.576;2024-02-21T08:33:01;11.60;;;4.27;;
13349;SDS011;6744;53.190;6.576;2024-02-21T08:35:26;11.20;;;4.60;;
13349;SDS011;6744;53.190;6.576;2024-02-21T08:37:51;11.87;;;4.40;;
13349;SDS011;6744;53.190;6.576;2024-02-21T08:40:17;8.53;;;3.73;;
13349;SDS011;6744;53.190;6.576;2024-02-21T08:42:46;9.13;;;3.80;;
13349;SDS011;6744;53.190;6.576;2024-02-21T08:45:11;12.77;;;4.80;;
13349;SDS011;6744;53.190;6.576;2024-02-21T08:47:40;9.63;;;4.57;;
13349;SDS011;6744;53.190;6.576;2024-02-21T08:50:06;10.50;;;4.40;;
13349;SDS011;6744;53.190;6.576;2024-02-21T08:52:32;9.03;;;4.50;;
13349;SDS011;6744;53.190;6.576;2024-02-21T08:54:58;11.53;;;5.63;;
13349;SDS011;6744;53.190;6.576;2024-02-21T08:57:23;12.27;;;5.50;;
13349;SDS011;6744;53.190;6.576;2024-02-21T08:59:48;9.70;;;4.93;;
13349;SDS011;6744;53.190;6.576;2024-02-21T09:02:14;13.77;;;7.73;;
13349;SDS011;6744;53.190;6.576;2024-02-21T09:04:43;14.03;;;8.30;;
13349;SDS011;6744;53.190;6.576;2024-02-21T09:07:11;14.03;;;8.53;;
13349;SDS011;6744;53.190;6.576;2024-02-21T09:09:37;12.07;;;8.43;;
13349;SDS011;6744;53.190;6.576;2024-02-21T09:12:08;13.83;;;9.33;;
13349;SDS011;6744;53.190;6.576;2024-02-21T09:14:34;12.83;;;9.50;;
13349;SDS011;6744;53.190;6.576;2024-02-21T09:17:02;14.20;;;9.57;;
13349;SDS011;6744;53.190;6.576;2024-02-21T09:19:28;15.53;;;10.37;;
13349;SDS011;6744;53.190;6.576;2024-02-21T09:21:53;12.93;;;9.60;;
13349;SDS011;6744;53.190;6.576;2024-02-21T09:24:19;13.37;;;10.10;;
13349;SDS011;6744;53.190;6.576;2024-02-21T09:26:44;16.43;;;10.20;;
13349;SDS011;6744;53.190;6.576;2024-02-21T09:29:10;17.17;;;11.77;;
13349;SDS011;6744;53.190;6.576;2024-02-21T09:31:35;15.23;;;11.37;;
13349;SDS011;6744;53.190;6.576;2024-02-21T09:34:01;13.27;;;10.03;;
13349;SDS011;6744;53.190;6.576;2024-02-21T09:36:27;13.90;;;10.83;;
13349;SDS011;6744;53.190;6.576;2024-02-21T09:38:52;11.93;;;10.33;;
13349;SDS011;6744;53.190;6.576;2024-02-21T09:41:25;12.83;;;10.50;;
13349;SDS011;6744;53.190;6.576;2024-02-21T09:43:51;13.03;;;10.63;;
13349;SDS011;6744;53.190;6.576;2024-02-21T09:46:18;13.83;;;11.27;;
13349;SDS011;6744;53.190;6.576;2024-02-21T09:51:17;16.17;;;11.97;;
13349;SDS011;6744;53.190;6.576;2024-02-21T09:53:44;14.97;;;10.70;;
13349;SDS011;6744;53.190;6.576;2024-02-21T09:56:10;13.13;;;10.50;;
13349;SDS011;6744;53.190;6.576;2024-02-21T09:58:35;14.10;;;11.67;;
13349;SDS011;6744;53.190;6.576;2024-02-21T10:01:01;12.63;;;10.23;;
13349;SDS011;6744;53.190;6.576;2024-02-21T10:03:29;12.20;;;10.43;;
13349;SDS011;6744;53.190;6.576;2024-02-21T10:05:54;12.10;;;10.50;;
13349;SDS011;6744;53.190;6.576;2024-02-21T10:08:20;15.00;;;11.60;;
13349;SDS011;6744;53.190;6.576;2024-02-21T10:10:45;12.40;;;11.10;;
13349;SDS011;6744;53.190;6.576;2024-02-21T10:13:21;11.57;;;10.37;;
13349;SDS011;6744;53.190;6.576;2024-02-21T10:15:49;14.13;;;11.30;;
13349;SDS011;6744;53.190;6.576;2024-02-21T10:18:28;12.77;;;11.07;;
13349;SDS011;6744;53.190;6.576;2024-02-21T10:20:59;12.70;;;11.40;;
13349;SDS011;6744;53.190;6.576;2024-02-21T10:26:26;14.50;;;12.97;;
13349;SDS011;6744;53.190;6.576;2024-02-21T10:28:51;12.87;;;11.57;;
13349;SDS011;6744;53.190;6.576;2024-02-21T10:31:26;13.80;;;12.33;;
13349;SDS011;6744;53.190;6.576;2024-02-21T10:33:59;14.30;;;12.20;;
13349;SDS011;6744;53.190;6.576;2024-02-21T10:36:27;15.93;;;12.80;;
13349;SDS011;6744;53.190;6.576;2024-02-21T10:38:53;15.17;;;13.03;;
13349;SDS011;6744;53.190;6.576;2024-02-21T10:41:20;14.00;;;12.60;;
13349;SDS011;6744;53.190;6.576;2024-02-21T10:43:49;15.73;;;12.87;;
13349;SDS011;6744;53.190;6.576;2024-02-21T10:46:18;15.23;;;13.70;;
13349;SDS011;6744;53.190;6.576;2024-02-21T10:48:45;18.27;;;14.33;;
13349;SDS011;6744;53.190;6.576;2024-02-21T10:53:44;14.10;;;11.77;;
13349;SDS011;6744;53.190;6.576;2024-02-21T10:56:28;13.90;;;12.33;;
13349;SDS011;6744;53.190;6.576;2024-02-21T10:58:55;14.03;;;12.63;;
13349;SDS011;6744;53.190;6.576;2024-02-21T11:01:23;18.30;;;13.47;;
13349;SDS011;6744;53.190;6.576;2024-02-21T11:03:48;14.17;;;12.30;;
13349;SDS011;6744;53.190;6.576;2024-02-21T11:06:16;14.20;;;11.97;;
13349;SDS011;6744;53.190;6.576;2024-02-21T11:08:42;12.10;;;11.00;;
13349;SDS011;6744;53.190;6.576;2024-02-21T11:11:07;14.47;;;12.13;;
13349;SDS011;6744;53.190;6.576;2024-02-21T11:13:36;15.03;;;13.43;;
13349;SDS011;6744;53.190;6.576;2024-02-21T11:16:06;14.63;;;12.53;;
13349;SDS011;6744;53.190;6.576;2024-02-21T11:18:35;14.43;;;12.00;;
13349;SDS011;6744;53.190;6.576;2024-02-21T11:21:00;14.83;;;11.50;;
13349;SDS011;6744;53.190;6.576;2024-02-21T11:23:26;13.37;;;11.97;;
13349;SDS011;6744;53.190;6.576;2024-02-21T11:25:52;12.27;;;11.07;;
13349;SDS011;6744;53.190;6.576;2024-02-21T11:28:25;12.20;;;10.90;;
13349;SDS011;6744;53.190;6.576;2024-02-21T11:30:50;11.10;;;9.80;;
13349;SDS011;6744;53.190;6.576;2024-02-21T11:33:16;12.40;;;11.13;;
13349;SDS011;6744;53.190;6.576;2024-02-21T11:35:41;11.57;;;10.40;;
13349;SDS011;6744;53.190;6.576;2024-02-21T11:38:10;14.23;;;11.07;;
13349;SDS011;6744;53.190;6.576;2024-02-21T11:40:40;10.67;;;9.67;;
13349;SDS011;6744;53.190;6.576;2024-02-21T11:43:06;13.57;;;9.73;;
13349;SDS011;6744;53.190;6.576;2024-02-21T11:45:32;11.33;;;10.13;;
13349;SDS011;6744;53.190;6.576;2024-02-21T11:47:58;9.43;;;8.47;;
13349;SDS011;6744;53.190;6.576;2024-02-21T11:50:26;11.60;;;9.67;;
13349;SDS011;6744;53.190;6.576;2024-02-21T11:52:54;10.50;;;9.50;;
13349;SDS011;6744;53.190;6.576;2024-02-21T11:55:19;10.70;;;8.93;;
13349;SDS011;6744;53.190;6.576;2024-02-21T11:57:47;9.47;;;8.57;;
13349;SDS011;6744;53.190;6.576;2024-02-21T12:00:16;10.27;;;8.63;;
13349;SDS011;6744;53.190;6.576;2024-02-21T12:02:45;10.63;;;9.03;;
13349;SDS011;6744;53.190;6.576;2024-02-21T12:05:11;11.20;;;8.80;;
13349;SDS011;6744;53.190;6.576;2024-02-21T12:07:36;8.73;;;7.30;;
13349;SDS011;6744;53.190;6.576;2024-02-21T12:10:08;10.07;;;8.10;;
13349;SDS011;6744;53.190;6.576;2024-02-21T12:12:35;10.83;;;8.63;;
13349;SDS011;6744;53.190;6.576;2024-02-21T12:15:03;10.23;;;7.70;;
13349;SDS011;6744;53.190;6.576;2024-02-21T12:17:30;10.00;;;7.40;;
13349;SDS011;6744;53.190;6.576;2024-02-21T12:19:56;10.03;;;7.10;;
13349;SDS011;6744;53.190;6.576;2024-02-21T12:22:22;8.67;;;7.33;;
13349;SDS011;6744;53.190;6.576;2024-02-21T12:24:47;9.90;;;7.73;;
13349;SDS011;6744;53.190;6.576;2024-02-21T12:27:13;8.20;;;7.10;;
13349;SDS011;6744;53.190;6.576;2024-02-21T12:29:38;9.13;;;7.30;;
13349;SDS011;6744;53.190;6.576;2024-02-21T12:32:04;9.10;;;7.53;;
13349;SDS011;6744;53.190;6.576;2024-02-21T12:34:30;9.20;;;7.10;;
13349;SDS011;6744;53.190;6.576;2024-02-21T12:36:58;10.47;;;7.33;;
13349;SDS011;6744;53.190;6.576;2024-02-21T12:39:24;8.47;;;7.67;;
13349;SDS011;6744;53.190;6.576;2024-02-21T12:41:49;9.67;;;7.07;;
13349;SDS011;6744;53.190;6.576;2024-02-21T12:44:15;7.90;;;6.47;;
13349;SDS011;6744;53.190;6.576;2024-02-21T12:46:41;6.90;;;5.90;;
13349;SDS011;6744;53.190;6.576;2024-02-21T12:49:07;8.13;;;6.80;;
13349;SDS011;6744;53.190;6.576;2024-02-21T12:51:33;7.50;;;5.73;;
13349;SDS011;6744;53.190;6.576;2024-02-21T12:53:59;7.17;;;5.57;;
13349;SDS011;6744;53.190;6.576;2024-02-21T12:56:25;6.77;;;6.03;;
13349;SDS011;6744;53.190;6.576;2024-02-21T12:58:55;8.03;;;6.10;;
13349;SDS011;6744;53.190;6.576;2024-02-21T13:01:21;7.00;;;6.20;;
13349;SDS011;6744;53.190;6.576;2024-02-21T13:03:46;7.00;;;5.37;;
13349;SDS011;6744;53.190;6.576;2024-02-21T13:06:12;6.90;;;5.50;;
13349;SDS011;6744;53.190;6.576;2024-02-21T13:08:37;6.07;;;5.20;;
13349;SDS011;6744;53.190;6.576;2024-02-21T13:11:03;7.77;;;5.80;;
13349;SDS011;6744;53.190;6.576;2024-02-21T13:13:29;6.07;;;5.13;;
13349;SDS011;6744;53.190;6.576;2024-02-21T13:15:55;6.67;;;4.90;;
13349;SDS011;6744;53.190;6.576;2024-02-21T13:18:21;6.93;;;5.67;;
13349;SDS011;6744;53.190;6.576;2024-02-21T13:20:47;7.03;;;5.40;;
13349;SDS011;6744;53.190;6.576;2024-02-21T13:23:12;5.73;;;5.17;;
13349;SDS011;6744;53.190;6.576;2024-02-21T13:25:38;6.13;;;5.20;;
13349;SDS011;6744;53.190;6.576;2024-02-21T13:28:03;6.10;;;5.20;;
13349;SDS011;6744;53.190;6.576;2024-02-21T13:30:29;5.40;;;4.87;;
13349;SDS011;6744;53.190;6.576;2024-02-21T13:32:54;5.63;;;4.80;;
13349;SDS011;6744;53.190;6.576;2024-02-21T13:35:20;5.23;;;4.67;;
13349;SDS011;6744;53.190;6.576;2024-02-21T13:37:45;5.07;;;4.57;;
13349;SDS011;6744;53.190;6.576;2024-02-21T13:40:11;5.93;;;4.67;;
13349;SDS011;6744;53.190;6.576;2024-02-21T13:42:38;4.63;;;4.23;;
13349;SDS011;6744;53.190;6.576;2024-02-21T13:45:04;5.17;;;4.50;;
13349;SDS011;6744;53.190;6.576;2024-02-21T13:47:31;4.67;;;4.27;;
13349;SDS011;6744;53.190;6.576;2024-02-21T13:49:57;5.00;;;4.50;;
13349;SDS011;6744;53.190;6.576;2024-02-21T13:52:23;4.87;;;4.20;;
13349;SDS011;6744;53.190;6.576;2024-02-21T13:54:51;5.37;;;4.70;;
13349;SDS011;6744;53.190;6.576;2024-02-21T13:57:17;5.00;;;4.60;;
13349;SDS011;6744;53.190;6.576;2024-02-21T13:59:42;4.43;;;4.03;;
13349;SDS011;6744;53.190;6.576;2024-02-21T14:02:08;4.37;;;4.03;;
13349;SDS011;6744;53.190;6.576;2024-02-21T14:04:34;4.60;;;4.10;;
13349;SDS011;6744;53.190;6.576;2024-02-21T14:07:00;4.67;;;4.07;;
13349;SDS011;6744;53.190;6.576;2024-02-21T14:09:25;3.87;;;3.57;;
13349;SDS011;6744;53.190;6.576;2024-02-21T14:11:51;6.97;;;4.53;;
13349;SDS011;6744;53.190;6.576;2024-02-21T14:14:17;4.70;;;4.30;;
13349;SDS011;6744;53.190;6.576;2024-02-21T14:16:42;4.77;;;4.30;;
13349;SDS011;6744;53.190;6.576;2024-02-21T14:19:07;6.47;;;4.47;;
13349;SDS011;6744;53.190;6.576;2024-02-21T14:21:34;5.40;;;4.63;;
13349;SDS011;6744;53.190;6.576;2024-02-21T14:24:02;4.80;;;4.40;;
13349;SDS011;6744;53.190;6.576;2024-02-21T14:26:29;4.43;;;4.03;;
13349;SDS011;6744;53.190;6.576;2024-02-21T14:28:56;4.77;;;4.20;;
13349;SDS011;6744;53.190;6.576;2024-02-21T14:31:22;5.53;;;4.27;;
13349;SDS011;6744;53.190;6.576;2024-02-21T14:33:47;4.60;;;3.70;;
13349;SDS011;6744;53.190;6.576;2024-02-21T14:36:13;6.00;;;4.10;;
13349;SDS011;6744;53.190;6.576;2024-02-21T14:38:40;4.50;;;4.10;;
13349;SDS011;6744;53.190;6.576;2024-02-21T14:41:06;5.20;;;4.70;;
13349;SDS011;6744;53.190;6.576;2024-02-21T14:43:32;4.80;;;4.23;;
13349;SDS011;6744;53.190;6.576;2024-02-21T14:45:57;4.97;;;4.47;;
13349;SDS011;6744;53.190;6.576;2024-02-21T14:48:23;5.33;;;4.77;;
13349;SDS011;6744;53.190;6.576;2024-02-21T14:50:48;4.97;;;4.40;;
13349;SDS011;6744;53.190;6.576;2024-02-21T14:53:14;5.50;;;4.30;;